Patraikos — A8UK9 — position and weather

sailwx.info

Track history (hours):
 
Tides and Currents Weather Stations Pressure Air Temp Water Temp Dewpoint Dewpoint Depression Visibility Wind Speed Wind Dir Waves Ship Positions

Patraikos

Last reported at 2018-May-22 10:00 UTC. Time now 2018-May-22 10:13 UTC.
Position S 33°13' E 151°51'.

Length 262 m; draft 12.1 m.

Type: Ship (hazmat cat A). MMSI: 636014515.

Date/timePositionNaut miles runAvg speedWind from/ knotsBaromVisibWave heightAir tempDewpointWater temp
2018-May-22 10:00S 33°13' E 151°51'4 8.5
2018-May-22 09:30S 33°10' E 151°55'612.2
2018-May-22 09:00S 33°05' E 151°60'611.9
2018-May-22 08:30S 33°01' E 152°04'611.8
2018-May-22 08:00S 32°56' E 152°09'611.7
2018-May-22 07:30S 32°52' E 152°13'611.4
2018-May-22 07:00S 32°48' E 152°18'611.1
2018-May-22 06:30S 32°44' E 152°22'611.3
2018-May-22 06:00S 32°39' E 152°27'511.0
2018-May-22 05:30S 32°35' E 152°31'510.6
2018-May-22 05:00S 32°31' E 152°35'611.1
2018-May-22 04:30S 32°27' E 152°39'611.4
2018-May-22 04:00S 32°21' E 152°42'1711.9
2018-May-22 02:35S 32°06' E 152°49'27312.4
2018-May-21 04:29S 27°37' E 153°47'611.7
2018-May-21 03:57S 27°31' E 153°46'912.2
2018-May-21 03:11S 27°22' E 153°45'  
Track history (hours):
 
Tides and Currents Weather Stations Pressure Air Temp Water Temp Dewpoint Dewpoint Depression Visibility Wind Speed Wind Dir Waves Ship Positions

Patraikos

Last reported at 2018-May-22 10:00 UTC. Time now 2018-May-22 10:13 UTC.
Position S 33°13' E 151°51'.

Length 262 m; draft 12.1 m.

Type: Ship (hazmat cat A). MMSI: 636014515.

Date/timePositionNaut miles runAvg speedWind from/ knotsBaromVisibWave heightAir tempDewpointWater temp
2018-May-22 10:00S 33°13' E 151°51'4 8.5
2018-May-22 09:30S 33°10' E 151°55'612.2
2018-May-22 09:00S 33°05' E 151°60'611.9
2018-May-22 08:30S 33°01' E 152°04'611.8
2018-May-22 08:00S 32°56' E 152°09'611.7
2018-May-22 07:30S 32°52' E 152°13'611.4
2018-May-22 07:00S 32°48' E 152°18'611.1
2018-May-22 06:30S 32°44' E 152°22'611.3
2018-May-22 06:00S 32°39' E 152°27'511.0
2018-May-22 05:30S 32°35' E 152°31'510.6
2018-May-22 05:00S 32°31' E 152°35'611.1
2018-May-22 04:30S 32°27' E 152°39'611.4
2018-May-22 04:00S 32°21' E 152°42'1711.9
2018-May-22 02:35S 32°06' E 152°49'27312.4
2018-May-21 04:29S 27°37' E 153°47'611.7
2018-May-21 03:57S 27°31' E 153°46'912.2
2018-May-21 03:11S 27°22' E 153°45'  

Dump ship's entire track history